createdAt,value
2018-05-01T00:00:08.292Z,0.20
2018-05-01T00:02:35.731Z,0.20
2018-05-01T00:05:03.976Z,0.10
2018-05-01T00:07:32.195Z,0.10
2018-05-01T00:09:59.653Z,0.10
2018-05-01T00:12:27.123Z,0.20
2018-05-01T00:14:54.598Z,0.10
2018-05-01T00:17:22.065Z,0.20
2018-05-01T00:19:50.316Z,0.20
2018-05-01T00:22:17.783Z,0.20
2018-05-01T00:24:45.229Z,0.20
2018-05-01T00:27:12.686Z,0.17
2018-05-01T00:29:40.168Z,0.20
2018-05-01T00:32:08.407Z,0.10
2018-05-01T00:34:35.856Z,0.15
2018-05-01T00:37:03.339Z,0.08
2018-05-01T00:39:30.819Z,0.20
2018-05-01T00:41:59.063Z,0.10
2018-05-01T00:44:26.525Z,0.17
2018-05-01T00:46:53.968Z,0.15
2018-05-01T00:49:21.421Z,0.25
2018-05-01T00:51:48.955Z,0.10
2018-05-01T00:54:16.335Z,0.20
2018-05-01T00:56:43.800Z,0.20
2018-05-01T00:59:11.303Z,0.15
2018-05-01T01:01:39.512Z,0.10
2018-05-01T01:04:06.967Z,0.10
2018-05-01T01:06:34.439Z,0.20
2018-05-01T01:09:01.896Z,0.10
2018-05-01T01:11:29.405Z,0.20
2018-05-01T01:13:57.629Z,0.10
2018-05-01T01:16:25.093Z,0.20
2018-05-01T01:18:52.585Z,0.20
2018-05-01T01:21:20.804Z,0.10
2018-05-01T01:23:48.279Z,0.20
2018-05-01T01:26:15.760Z,0.17
2018-05-01T01:28:43.207Z,0.10
2018-05-01T01:31:10.667Z,0.20
2018-05-01T01:33:38.112Z,0.20
2018-05-01T01:36:05.109Z,0.10
2018-05-01T01:38:32.081Z,0.10
2018-05-01T01:40:59.040Z,0.10
2018-05-01T01:43:26.032Z,0.15
2018-05-01T01:45:53.788Z,0.10
2018-05-01T01:48:20.772Z,0.10
2018-05-01T01:50:47.755Z,0.10
2018-05-01T01:53:14.750Z,0.13
2018-05-01T01:55:41.714Z,0.10
2018-05-01T01:58:08.688Z,0.10
2018-05-01T02:00:35.663Z,0.17
2018-05-01T02:03:02.633Z,0.10
2018-05-01T02:05:29.609Z,0.10
2018-05-01T02:07:57.324Z,0.10
2018-05-01T02:10:24.306Z,0.10
2018-05-01T02:12:51.280Z,0.10
2018-05-01T02:15:18.235Z,0.10
2018-05-01T02:17:45.200Z,0.10
2018-05-01T02:20:12.172Z,0.10
2018-05-01T02:22:39.133Z,0.10
2018-05-01T02:25:06.135Z,0.10
2018-05-01T02:27:33.118Z,0.10
2018-05-01T02:30:00.075Z,0.10
2018-05-01T02:32:27.069Z,0.10
2018-05-01T02:34:54.028Z,0.10
2018-05-01T02:37:20.989Z,0.10
2018-05-01T02:39:48.743Z,0.13
2018-05-01T02:42:16.515Z,0.10
2018-05-01T02:44:44.291Z,0.13
2018-05-01T02:47:11.283Z,0.10
2018-05-01T02:49:38.280Z,0.10
2018-05-01T02:52:05.257Z,0.30
2018-05-01T02:54:32.237Z,0.10
2018-05-01T02:56:59.225Z,0.10
2018-05-01T02:59:26.472Z,0.10
2018-05-01T03:01:53.515Z,0.30
2018-05-01T03:04:20.509Z,0.20
2018-05-01T03:06:47.467Z,0.10
2018-05-01T03:09:14.456Z,0.40
2018-05-01T03:11:42.192Z,0.10
2018-05-01T03:14:09.179Z,0.20
2018-05-01T03:16:36.136Z,0.10
2018-05-01T03:19:03.107Z,0.20
2018-05-01T03:21:30.127Z,0.10
2018-05-01T03:23:57.097Z,0.20
2018-05-01T03:26:24.085Z,0.30
2018-05-01T03:28:51.863Z,0.30
2018-05-01T03:31:18.820Z,0.20
2018-05-01T03:33:45.787Z,0.20
2018-05-01T03:36:12.748Z,0.20
2018-05-01T03:38:39.704Z,0.30
2018-05-01T03:41:06.718Z,0.40
2018-05-01T03:43:33.667Z,0.45
2018-05-01T03:46:00.644Z,0.40
2018-05-01T03:48:27.603Z,0.43
2018-05-01T03:50:55.399Z,0.37
2018-05-01T03:53:22.380Z,0.40
2018-05-01T03:55:49.409Z,0.40
2018-05-01T03:58:17.151Z,0.30
2018-05-01T04:00:44.136Z,0.40
2018-05-01T04:03:11.100Z,0.55
2018-05-01T04:05:38.060Z,0.40
2018-05-01T04:08:05.802Z,0.57
2018-05-01T04:10:32.771Z,0.68
2018-05-01T04:13:00.511Z,0.60
2018-05-01T04:15:27.476Z,0.57
2018-05-01T04:17:55.225Z,0.70
2018-05-01T04:20:22.190Z,0.80
2018-05-01T04:22:49.944Z,0.62
2018-05-01T04:25:16.934Z,0.60
2018-05-01T04:27:43.900Z,1.20
2018-05-01T04:30:10.885Z,1.20
2018-05-01T04:32:37.875Z,0.90
2018-05-01T04:35:04.851Z,0.93
2018-05-01T04:37:31.823Z,0.80
2018-05-01T04:39:58.787Z,0.95
2018-05-01T04:42:26.516Z,0.90
2018-05-01T04:44:53.504Z,0.90
2018-05-01T04:47:20.487Z,0.90
2018-05-01T04:49:47.468Z,0.93
2018-05-01T04:52:14.427Z,0.80
2018-05-01T04:54:42.156Z,1.27
2018-05-01T04:57:09.139Z,1.00
2018-05-01T04:59:36.923Z,1.10
2018-05-01T05:02:03.896Z,0.80
2018-05-01T05:04:30.895Z,1.00
2018-05-01T05:06:58.632Z,1.00
2018-05-01T05:09:25.682Z,0.90
2018-05-01T05:11:52.596Z,0.82
2018-05-01T05:14:19.553Z,0.90
2018-05-01T05:16:46.540Z,0.77
2018-05-01T05:19:14.287Z,1.08
2018-05-01T05:21:41.260Z,0.88
2018-05-01T05:24:09.016Z,0.80
2018-05-01T05:26:36.754Z,1.15
2018-05-01T05:29:03.732Z,0.90
2018-05-01T05:31:31.460Z,1.08
2018-05-01T05:33:58.421Z,0.93
2018-05-01T05:36:25.426Z,1.17
2018-05-01T05:38:52.356Z,1.05
2018-05-01T05:41:19.348Z,1.00
2018-05-01T05:43:46.324Z,1.40
2018-05-01T05:46:13.335Z,1.20
2018-05-01T05:48:40.324Z,1.20
2018-05-01T05:51:07.298Z,0.90
2018-05-01T05:53:34.255Z,1.20
2018-05-01T05:56:01.227Z,1.05
2018-05-01T05:58:28.213Z,1.25
2018-05-01T06:00:55.201Z,1.58
2018-05-01T06:03:22.179Z,1.17
2018-05-01T06:05:49.916Z,1.37
2018-05-01T06:08:16.875Z,1.50
2018-05-01T06:10:43.832Z,1.45
2018-05-01T06:13:10.791Z,1.20
2018-05-01T06:18:28.147Z,1.42
2018-05-01T06:20:55.112Z,1.30
2018-05-01T06:23:22.104Z,1.25
2018-05-01T06:25:49.059Z,1.50
2018-05-01T06:28:16.809Z,1.20
2018-05-01T06:30:43.792Z,1.30
2018-05-01T06:33:10.787Z,1.40
2018-05-01T06:35:37.749Z,1.50
2018-05-01T06:38:04.742Z,1.30
2018-05-01T06:40:31.725Z,1.10
2018-05-01T06:42:58.696Z,1.30
2018-05-01T06:45:26.443Z,1.25
2018-05-01T06:47:53.432Z,1.80
2018-05-01T06:50:20.424Z,2.10
2018-05-01T06:52:47.388Z,1.67
2018-05-01T06:55:14.371Z,1.15
2018-05-01T06:57:41.425Z,1.30
2018-05-01T07:00:09.150Z,1.67
2018-05-01T07:02:36.128Z,1.80
2018-05-01T07:05:03.100Z,1.48
2018-05-01T07:07:30.073Z,1.50
2018-05-01T07:09:57.054Z,1.40
2018-05-01T07:12:24.812Z,1.40
2018-05-01T07:14:52.528Z,1.40
2018-05-01T07:17:19.507Z,1.12
2018-05-01T07:19:46.504Z,1.27
2018-05-01T07:22:13.458Z,1.25
2018-05-01T07:24:40.458Z,1.27
2018-05-01T07:27:08.188Z,1.30
2018-05-01T07:29:35.208Z,1.15
2018-05-01T07:32:02.191Z,1.20
2018-05-01T07:34:29.184Z,1.23
2018-05-01T07:36:56.948Z,1.48
2018-05-01T07:39:23.924Z,1.20
2018-05-01T07:41:50.955Z,1.45
2018-05-01T07:44:17.908Z,1.05
2018-05-01T07:46:44.893Z,1.40
2018-05-01T07:49:12.628Z,1.35
2018-05-01T07:51:39.596Z,1.27
2018-05-01T07:54:06.556Z,1.52
2018-05-01T07:56:34.292Z,1.52
2018-05-01T07:59:01.301Z,1.70
2018-05-01T08:01:28.267Z,1.37
2018-05-01T08:03:55.240Z,1.70
2018-05-01T08:06:22.219Z,1.90
2018-05-01T08:08:49.224Z,1.70
2018-05-01T08:11:16.192Z,2.20
2018-05-01T08:13:43.943Z,2.40
2018-05-01T08:16:10.908Z,1.83
2018-05-01T08:18:38.687Z,2.47
2018-05-01T08:21:05.636Z,2.42
2018-05-01T08:23:32.603Z,2.25
2018-05-01T08:25:59.586Z,2.42
2018-05-01T08:28:26.556Z,2.87
2018-05-01T08:30:55.105Z,2.35
2018-05-01T08:33:22.092Z,2.15
2018-05-01T08:35:49.083Z,2.50
2018-05-01T08:38:16.064Z,2.62
2018-05-01T08:40:43.798Z,2.90
2018-05-01T08:43:10.759Z,2.80
2018-05-01T08:45:37.892Z,2.53
2018-05-01T08:48:04.846Z,2.92
2018-05-01T08:50:31.823Z,2.33
2018-05-01T08:52:59.579Z,2.30
2018-05-01T08:55:27.303Z,2.42
2018-05-01T08:57:54.280Z,2.17
2018-05-01T09:00:22.051Z,2.37
2018-05-01T09:02:49.012Z,2.47
2018-05-01T09:05:16.008Z,2.50
2018-05-01T09:07:42.978Z,2.40
2018-05-01T09:10:09.950Z,1.67
2018-05-01T09:12:37.747Z,1.90
2018-05-01T09:15:04.703Z,2.15
2018-05-01T09:17:32.452Z,2.40
2018-05-01T09:19:59.411Z,2.53
2018-05-01T09:22:26.399Z,2.55
2018-05-01T09:24:54.129Z,2.37
2018-05-01T09:27:21.127Z,2.20
2018-05-01T09:29:48.103Z,2.12
2018-05-01T09:32:15.100Z,2.35
2018-05-01T09:34:42.849Z,2.40
2018-05-01T09:37:09.843Z,2.53
2018-05-01T09:39:36.823Z,2.30
2018-05-01T09:42:03.803Z,2.20
2018-05-01T09:44:31.543Z,2.35
2018-05-01T09:46:58.549Z,2.22
2018-05-01T09:49:25.569Z,1.87
2018-05-01T09:51:52.528Z,2.40
2018-05-01T09:54:20.017Z,2.03
2018-05-01T09:56:47.472Z,2.25
2018-05-01T09:59:15.080Z,2.17
2018-05-01T10:01:43.405Z,2.40
2018-05-01T10:04:10.812Z,2.12
2018-05-01T10:06:39.074Z,1.92
2018-05-01T10:09:06.524Z,2.72
2018-05-01T10:11:34.012Z,2.12
2018-05-01T10:14:02.255Z,1.90
2018-05-01T10:16:30.464Z,2.37
2018-05-01T10:18:58.699Z,1.98
2018-05-01T10:21:26.148Z,2.00
2018-05-01T10:23:53.643Z,2.50
2018-05-01T10:26:21.116Z,2.45
2018-05-01T10:28:48.586Z,2.20
2018-05-01T10:31:16.043Z,2.60
2018-05-01T10:33:43.507Z,2.40
2018-05-01T10:36:10.991Z,2.17
2018-05-01T10:38:38.584Z,2.25
2018-05-01T10:41:06.766Z,2.20
2018-05-01T10:43:34.212Z,2.03
2018-05-01T10:46:01.697Z,2.30
2018-05-01T10:48:29.943Z,2.15
2018-05-01T10:50:57.408Z,2.42
2018-05-01T10:53:24.852Z,2.57
2018-05-01T10:55:52.328Z,2.23
2018-05-01T10:58:20.567Z,1.97
2018-05-01T11:00:48.030Z,2.50
2018-05-01T11:03:15.479Z,2.50
2018-05-01T11:05:42.959Z,2.47
2018-05-01T11:08:10.451Z,2.60
2018-05-01T11:10:38.695Z,3.07
2018-05-01T11:13:06.189Z,2.53
2018-05-01T11:15:33.656Z,2.25
2018-05-01T11:18:01.186Z,2.87
2018-05-01T11:20:28.585Z,2.30
2018-05-01T11:22:56.040Z,3.00
2018-05-01T11:25:23.489Z,2.37
2018-05-01T11:27:50.961Z,2.70
2018-05-01T11:30:18.408Z,2.47
2018-05-01T11:32:45.905Z,2.60
2018-05-01T11:35:13.372Z,2.67
2018-05-01T11:37:40.855Z,2.60
2018-05-01T11:40:09.124Z,2.60
2018-05-01T11:42:37.355Z,2.40
2018-05-01T11:45:04.884Z,2.40
2018-05-01T11:47:32.272Z,1.83
2018-05-01T11:49:59.758Z,2.27
2018-05-01T11:52:27.240Z,2.13
2018-05-01T11:54:55.506Z,2.63
2018-05-01T11:57:23.743Z,2.60
2018-05-01T11:59:51.230Z,2.60
2018-05-01T12:02:19.463Z,2.50
2018-05-01T12:04:46.915Z,2.30
2018-05-01T12:07:14.373Z,2.70
2018-05-01T12:09:41.844Z,2.07
2018-05-01T12:12:09.316Z,2.47
2018-05-01T12:14:36.798Z,2.30
2018-05-01T12:17:05.021Z,2.13
2018-05-01T12:19:32.503Z,2.10
2018-05-01T12:21:59.972Z,2.03
2018-05-01T12:24:27.419Z,2.10
2018-05-01T12:26:54.908Z,2.37
2018-05-01T12:29:23.551Z,2.37
2018-05-01T12:31:51.032Z,2.00
2018-05-01T12:34:18.512Z,2.10
2018-05-01T12:36:46.845Z,2.37
2018-05-01T12:39:15.019Z,2.40
2018-05-01T12:41:42.502Z,2.35
2018-05-01T12:44:09.953Z,2.13
2018-05-01T12:46:37.429Z,2.25
2018-05-01T12:49:05.685Z,2.03
2018-05-01T12:51:33.164Z,2.57
2018-05-01T12:54:01.406Z,2.10
2018-05-01T12:56:28.889Z,1.90
2018-05-01T12:58:56.337Z,2.43
2018-05-01T13:01:23.783Z,2.80
2018-05-01T13:03:51.240Z,2.80
2018-05-01T13:06:18.696Z,2.60
2018-05-01T13:08:46.177Z,2.87
2018-05-01T13:11:13.655Z,2.30
2018-05-01T13:13:41.155Z,2.57
2018-05-01T13:16:08.632Z,2.23
2018-05-01T13:18:36.083Z,2.47
2018-05-01T13:21:03.558Z,2.30
2018-05-01T13:23:31.004Z,2.20
2018-05-01T13:25:58.519Z,2.30
2018-05-01T13:28:26.001Z,2.50
2018-05-01T13:30:53.459Z,2.50
2018-05-01T13:33:20.935Z,2.27
2018-05-01T13:35:48.408Z,2.40
2018-05-01T13:38:15.857Z,2.80
2018-05-01T13:40:43.338Z,2.50
2018-05-01T13:43:11.575Z,2.00
2018-05-01T13:45:39.078Z,2.20
2018-05-01T13:48:06.538Z,1.95
2018-05-01T13:50:34.047Z,2.13
2018-05-01T13:53:01.484Z,2.10
2018-05-01T13:55:28.948Z,2.10
2018-05-01T13:57:56.416Z,2.20
2018-05-01T14:00:23.872Z,1.93
2018-05-01T14:02:51.344Z,2.13
2018-05-01T14:05:18.831Z,1.83
2018-05-01T14:07:47.077Z,1.90
2018-05-01T14:10:14.551Z,2.10
2018-05-01T14:12:42.033Z,2.17
2018-05-01T14:15:09.491Z,1.90
2018-05-01T14:17:36.975Z,1.73
2018-05-01T14:20:04.458Z,1.77
2018-05-01T14:22:31.956Z,1.70
2018-05-01T14:24:59.433Z,1.75
2018-05-01T14:27:26.916Z,1.90
2018-05-01T14:29:54.465Z,1.70
2018-05-01T14:32:21.912Z,1.70
2018-05-01T14:34:49.398Z,1.97
2018-05-01T14:37:16.848Z,1.93
2018-05-01T14:39:44.336Z,2.33
2018-05-01T14:42:12.608Z,1.90
2018-05-01T14:44:40.068Z,1.73
2018-05-01T14:47:07.545Z,1.67
2018-05-01T14:49:35.768Z,1.60
2018-05-01T14:52:03.270Z,1.90
2018-05-01T14:57:05.309Z,1.97
2018-05-01T14:59:33.738Z,1.90
2018-05-01T15:02:01.970Z,1.60
2018-05-01T15:04:29.438Z,1.90
2018-05-01T15:06:56.889Z,1.43
2018-05-01T15:09:24.405Z,1.40
2018-05-01T15:11:51.875Z,1.53
2018-05-01T15:14:19.344Z,2.00
2018-05-01T15:16:46.820Z,1.30
2018-05-01T15:19:14.290Z,1.60
2018-05-01T15:21:41.760Z,1.73
2018-05-01T15:24:10.017Z,1.27
2018-05-01T15:26:37.516Z,1.30
2018-05-01T15:29:05.011Z,1.27
2018-05-01T15:31:32.508Z,1.20
2018-05-01T15:33:59.965Z,1.40
2018-05-01T15:36:27.429Z,1.47
2018-05-01T15:38:55.655Z,1.57
2018-05-01T15:41:23.899Z,1.10
2018-05-01T15:43:51.347Z,1.23
2018-05-01T15:46:18.823Z,1.20
2018-05-01T15:48:46.304Z,0.90
2018-05-01T15:51:13.748Z,1.20
2018-05-01T15:53:41.252Z,1.40
2018-05-01T15:56:08.776Z,1.25
2018-05-01T15:58:36.220Z,1.00
2018-05-01T16:01:03.703Z,1.27
2018-05-01T16:03:31.157Z,1.23
2018-05-01T16:05:58.656Z,1.40
2018-05-01T16:08:26.868Z,1.30
2018-05-01T16:10:54.324Z,1.23
2018-05-01T16:13:22.359Z,1.43
2018-05-01T16:15:50.572Z,1.00
2018-05-01T16:18:18.049Z,1.50
2018-05-01T16:20:45.535Z,1.07
2018-05-01T16:23:12.995Z,0.70
2018-05-01T16:25:40.451Z,1.20
2018-05-01T16:28:07.909Z,1.10
2018-05-01T16:30:36.131Z,1.60
2018-05-01T16:33:03.684Z,1.10
2018-05-01T16:35:31.159Z,1.17
2018-05-01T16:37:58.628Z,0.87
2018-05-01T16:40:26.108Z,1.10
2018-05-01T16:42:53.612Z,0.80
2018-05-01T16:45:21.088Z,0.70
2018-05-01T16:47:48.540Z,1.15
2018-05-01T16:50:16.005Z,1.10
2018-05-01T16:52:43.488Z,1.05
2018-05-01T16:55:10.954Z,1.00
2018-05-01T16:57:38.453Z,1.25
2018-05-01T17:00:05.928Z,0.77
2018-05-01T17:02:33.408Z,0.75
2018-05-01T17:05:00.906Z,0.85
2018-05-01T17:07:29.116Z,0.77
2018-05-01T17:09:56.601Z,0.90
2018-05-01T17:12:24.084Z,0.68
2018-05-01T17:14:51.539Z,0.73
2018-05-01T17:17:19.764Z,0.88
2018-05-01T17:19:47.247Z,0.65
2018-05-01T17:22:14.732Z,0.60
2018-05-01T17:24:42.204Z,0.70
2018-05-01T17:27:10.457Z,0.93
2018-05-01T17:29:37.949Z,0.70
2018-05-01T17:32:05.420Z,0.70
2018-05-01T17:34:33.649Z,1.00
2018-05-01T17:37:01.135Z,0.80
2018-05-01T17:39:29.423Z,0.90
2018-05-01T17:41:56.894Z,0.70
2018-05-01T17:44:24.403Z,0.80
2018-05-01T17:46:51.882Z,0.75
2018-05-01T17:49:19.335Z,0.70
2018-05-01T17:51:47.560Z,0.75
2018-05-01T17:54:15.031Z,0.65
2018-05-01T17:56:42.508Z,0.75
2018-05-01T17:59:09.985Z,0.77
2018-05-01T18:01:37.444Z,0.80
2018-05-01T18:04:04.915Z,0.70
2018-05-01T18:06:32.493Z,0.62
2018-05-01T18:08:59.887Z,0.70
2018-05-01T18:11:27.369Z,0.70
2018-05-01T18:13:55.612Z,0.90
2018-05-01T18:16:23.076Z,0.50
2018-05-01T18:18:50.545Z,0.52
2018-05-01T18:21:18.001Z,0.85
2018-05-01T18:23:46.236Z,0.80
2018-05-01T18:26:13.691Z,0.60
2018-05-01T18:28:41.176Z,0.70
2018-05-01T18:31:08.628Z,0.90
2018-05-01T18:33:36.089Z,0.88
2018-05-01T18:36:03.572Z,1.00
2018-05-01T18:38:31.037Z,0.80
2018-05-01T18:40:59.264Z,0.62
2018-05-01T18:43:26.720Z,1.00
2018-05-01T18:45:54.200Z,1.02
2018-05-01T18:48:21.644Z,1.00
2018-05-01T18:50:49.170Z,0.80
2018-05-01T18:53:16.588Z,0.68
2018-05-01T18:55:44.051Z,1.17
2018-05-01T18:58:12.320Z,0.90
2018-05-01T19:00:39.779Z,1.02
2018-05-01T19:03:07.239Z,1.00
2018-05-01T19:05:34.736Z,1.08
2018-05-01T19:08:02.230Z,1.65
2018-05-01T19:10:29.766Z,1.40
2018-05-01T19:12:57.940Z,1.80
2018-05-01T19:15:25.438Z,1.45
2018-05-01T19:17:52.907Z,1.73
2018-05-01T19:20:21.139Z,1.98
2018-05-01T19:22:48.632Z,2.45
2018-05-01T19:25:16.108Z,2.87
2018-05-01T19:27:44.344Z,3.15
2018-05-01T19:30:11.899Z,2.58
2018-05-01T19:32:40.066Z,2.92
2018-05-01T19:35:07.549Z,2.67
2018-05-01T19:37:35.008Z,2.70
2018-05-01T19:40:02.455Z,3.05
2018-05-01T19:42:29.928Z,2.80
2018-05-01T19:44:57.387Z,2.60
2018-05-01T19:47:25.617Z,2.65
2018-05-01T19:49:53.080Z,3.10
2018-05-01T19:52:20.544Z,4.28
2018-05-01T19:54:48.017Z,5.25
2018-05-01T19:57:15.495Z,4.35
2018-05-01T19:59:43.086Z,4.10
2018-05-01T20:02:10.615Z,3.97
2018-05-01T20:04:38.044Z,3.45
2018-05-01T20:07:05.534Z,3.28
2018-05-01T20:09:33.773Z,3.20
2018-05-01T20:12:01.224Z,2.70
2018-05-01T20:14:28.759Z,2.97
2018-05-01T20:16:56.992Z,1.95
2018-05-01T20:19:24.493Z,2.05
2018-05-01T20:21:51.945Z,2.33
2018-05-01T20:24:19.409Z,2.15
2018-05-01T20:26:46.883Z,1.50
2018-05-01T20:29:14.442Z,1.80
2018-05-01T20:31:41.985Z,1.60
2018-05-01T20:34:10.201Z,1.30
2018-05-01T20:36:37.649Z,1.60
2018-05-01T20:39:05.109Z,1.10
2018-05-01T20:41:32.565Z,1.25
2018-05-01T20:44:00.044Z,1.52
2018-05-01T20:46:28.341Z,1.05
2018-05-01T20:48:56.552Z,1.15
2018-05-01T20:51:24.044Z,1.50
2018-05-01T20:53:51.495Z,1.67
2018-05-01T20:56:18.955Z,1.67
2018-05-01T20:58:46.436Z,1.77
2018-05-01T21:01:14.671Z,1.90
2018-05-01T21:03:42.151Z,1.90
2018-05-01T21:06:09.615Z,1.70
2018-05-01T21:08:37.056Z,1.60
2018-05-01T21:11:04.525Z,1.60
2018-05-01T21:13:32.007Z,1.58
2018-05-01T21:15:59.467Z,1.80
2018-05-01T21:18:26.920Z,1.60
2018-05-01T21:20:54.387Z,1.40
2018-05-01T21:23:22.288Z,1.77
2018-05-01T21:25:49.772Z,1.62
2018-05-01T21:28:17.246Z,1.60
2018-05-01T21:30:44.719Z,1.77
2018-05-01T21:33:12.208Z,1.45
2018-05-01T21:35:39.656Z,1.50
2018-05-01T21:38:07.138Z,1.60
2018-05-01T21:40:34.595Z,1.50
2018-05-01T21:43:02.070Z,1.50
2018-05-01T21:45:29.507Z,1.48
2018-05-01T21:47:56.964Z,1.90
2018-05-01T21:50:24.412Z,1.80
2018-05-01T21:52:51.872Z,1.60
2018-05-01T21:55:19.322Z,1.60
2018-05-01T21:57:46.832Z,1.58
2018-05-01T22:00:15.080Z,1.37
2018-05-01T22:02:42.555Z,1.25
2018-05-01T22:05:10.019Z,1.50
2018-05-01T22:07:37.471Z,1.42
2018-05-01T22:10:04.987Z,1.45
2018-05-01T22:12:32.422Z,1.45
2018-05-01T22:14:59.882Z,1.83
2018-05-01T22:17:27.340Z,1.73
2018-05-01T22:19:54.839Z,1.80
2018-05-01T22:22:22.284Z,1.35
2018-05-01T22:24:49.757Z,1.58
2018-05-01T22:27:17.258Z,1.45
2018-05-01T22:29:44.790Z,1.67
2018-05-01T22:32:12.242Z,1.80
2018-05-01T22:34:39.724Z,1.40
2018-05-01T22:37:07.956Z,1.05
2018-05-01T22:39:35.470Z,1.50
2018-05-01T22:42:02.939Z,1.48
2018-05-01T22:44:31.143Z,1.50
2018-05-01T22:46:58.607Z,1.70
2018-05-01T22:49:26.053Z,1.50
2018-05-01T22:51:53.511Z,1.60
2018-05-01T22:54:20.963Z,1.48
2018-05-01T22:56:48.420Z,1.42
2018-05-01T22:59:16.063Z,1.67
2018-05-01T23:01:43.565Z,1.25
2018-05-01T23:04:11.040Z,1.60
2018-05-01T23:06:39.278Z,1.80
2018-05-01T23:09:06.720Z,1.35
2018-05-01T23:11:34.175Z,1.50
2018-05-01T23:14:01.690Z,1.65
2018-05-01T23:16:29.911Z,1.40
2018-05-01T23:18:57.380Z,1.83
2018-05-01T23:21:24.856Z,1.40
2018-05-01T23:23:52.435Z,1.90
2018-05-01T23:26:19.880Z,1.52
2018-05-01T23:28:47.332Z,1.40
2018-05-01T23:31:14.869Z,1.40
2018-05-01T23:33:42.333Z,1.48
2018-05-01T23:36:09.820Z,1.40
2018-05-01T23:38:37.276Z,1.48
2018-05-01T23:41:05.511Z,1.70
2018-05-01T23:43:32.987Z,1.40
2018-05-01T23:46:00.468Z,1.35
2018-05-01T23:48:27.920Z,1.23
2018-05-01T23:50:55.387Z,1.42
2018-05-01T23:53:23.640Z,1.52
2018-05-01T23:55:51.113Z,1.40
2018-05-01T23:58:18.600Z,1.50
